createdAt,value
2018-12-24T00:01:28.567Z,95577.85
2018-12-24T00:03:58.731Z,95578.23
2018-12-24T00:06:28.843Z,95568.72
2018-12-24T00:08:58.830Z,95572.59
2018-12-24T00:11:28.775Z,95562.04
2018-12-24T00:13:58.897Z,95560.61
2018-12-24T00:16:28.812Z,95554.49
2018-12-24T00:18:58.845Z,95549.80
2018-12-24T00:21:28.952Z,95546.26
2018-12-24T00:23:58.973Z,95539.76
2018-12-24T00:26:28.977Z,95538.30
2018-12-24T00:28:59.002Z,95535.91
2018-12-24T00:31:29.009Z,95528.29
2018-12-24T00:33:59.180Z,95527.70
2018-12-24T00:36:29.082Z,95519.80
2018-12-24T00:38:59.044Z,95514.34
2018-12-24T00:41:29.015Z,95509.72
2018-12-24T00:43:59.115Z,95503.61
2018-12-24T00:46:29.173Z,95505.77
2018-12-24T00:48:59.248Z,95496.75
2018-12-24T00:51:29.478Z,95493.17
2018-12-24T00:53:59.492Z,95485.26
2018-12-24T00:56:29.416Z,95473.19
2018-12-24T00:58:59.638Z,95474.81
2018-12-24T01:01:29.700Z,95472.30
2018-12-24T01:03:59.742Z,95466.94
2018-12-24T01:06:29.787Z,95464.17
2018-12-24T01:08:59.916Z,95459.55
2018-12-24T01:11:29.930Z,95455.15
2018-12-24T01:14:00.041Z,95447.42
2018-12-24T01:16:30.276Z,95445.91
2018-12-24T01:19:00.287Z,95431.23
2018-12-24T01:21:30.311Z,95438.75
2018-12-24T01:24:00.421Z,95429.41
2018-12-24T01:26:30.447Z,95433.68
2018-12-24T01:29:00.465Z,95424.12
2018-12-24T01:31:30.600Z,95426.23
2018-12-24T01:34:00.564Z,95424.28
2018-12-24T01:36:30.499Z,95433.39
2018-12-24T01:39:00.641Z,95421.32
2018-12-24T01:41:30.713Z,95424.98
2018-12-24T01:44:00.642Z,95415.51
2018-12-24T01:46:30.589Z,95402.75
2018-12-24T01:49:00.821Z,95406.55
2018-12-24T01:51:30.943Z,95422.50
2018-12-24T01:54:00.948Z,95413.56
2018-12-24T01:56:31.071Z,95417.14
2018-12-24T01:59:01.194Z,95401.36
2018-12-24T02:01:31.212Z,95402.83
2018-12-24T02:04:01.440Z,95405.06
2018-12-24T02:06:31.474Z,95398.06
2018-12-24T02:09:01.477Z,95405.42
2018-12-24T02:11:31.601Z,95409.98
2018-12-24T02:14:01.580Z,95424.00
2018-12-24T02:16:31.498Z,95413.19
2018-12-24T02:19:01.740Z,95408.11
2018-12-24T02:21:31.881Z,95415.63
2018-12-24T02:24:02.095Z,95418.31
2018-12-24T02:26:32.130Z,95403.88
2018-12-24T02:29:02.228Z,95408.27
2018-12-24T02:31:32.233Z,95395.70
2018-12-24T02:34:02.302Z,95394.72
2018-12-24T02:36:32.499Z,95383.81
2018-12-24T02:39:02.498Z,95377.72
2018-12-24T02:41:32.495Z,95367.87
2018-12-24T02:44:02.539Z,95366.36
2018-12-24T02:46:32.680Z,95359.89
2018-12-24T02:49:02.643Z,95359.30
2018-12-24T02:51:32.807Z,95346.69
2018-12-24T02:54:02.919Z,95335.59
2018-12-24T02:56:32.955Z,95331.18
2018-12-24T02:59:02.971Z,95316.42
2018-12-24T03:01:33.080Z,95308.30
2018-12-24T03:04:03.097Z,95306.42
2018-12-24T03:06:33.126Z,95323.13
2018-12-24T03:09:04.254Z,95296.81
2018-12-24T03:11:34.270Z,95337.89
2018-12-24T03:14:04.294Z,95306.20
2018-12-24T03:16:34.430Z,95298.16
2018-12-24T03:19:04.504Z,95306.06
2018-12-24T03:21:34.454Z,95302.39
2018-12-24T03:24:04.675Z,95297.48
2018-12-24T03:26:34.726Z,95289.36
2018-12-24T03:29:04.674Z,95275.94
2018-12-24T03:31:34.742Z,95263.72
2018-12-24T03:34:04.542Z,95262.83
2018-12-24T03:36:34.593Z,95262.59
2018-12-24T03:39:05.501Z,95255.31
2018-12-24T03:41:35.520Z,95243.16
2018-12-24T03:44:05.747Z,95230.31
2018-12-24T03:46:35.796Z,95221.09
2018-12-24T03:49:05.773Z,95217.48
2018-12-24T03:51:35.905Z,95205.77
2018-12-24T03:54:05.919Z,95196.02
2018-12-24T03:56:35.958Z,95218.76
2018-12-24T03:59:06.059Z,95151.98
2018-12-24T04:01:36.083Z,95178.22
2018-12-24T04:04:06.379Z,95207.21
2018-12-24T04:06:36.422Z,95168.23
2018-12-24T04:09:07.868Z,95153.32
2018-12-24T04:11:37.891Z,95174.48
2018-12-24T04:14:08.120Z,95131.53
2018-12-24T04:16:38.163Z,95140.80
2018-12-24T04:19:08.109Z,95142.80
2018-12-24T04:21:38.158Z,95099.86
2018-12-24T04:24:08.209Z,95125.36
2018-12-24T04:26:38.232Z,95111.19
2018-12-24T04:29:08.408Z,95136.38
2018-12-24T04:31:38.593Z,95097.70
2018-12-24T04:34:08.666Z,95097.70
2018-12-24T04:36:38.782Z,95103.81
2018-12-24T04:39:08.808Z,95098.52
2018-12-24T04:41:39.048Z,95088.84
2018-12-24T04:44:09.070Z,95099.80
2018-12-24T04:46:39.163Z,95069.46
2018-12-24T04:49:09.195Z,95062.47
2018-12-24T04:51:39.238Z,95083.41
2018-12-24T04:54:09.376Z,95073.23
2018-12-24T04:56:39.470Z,95086.63
2018-12-24T04:59:09.426Z,95097.05
2018-12-24T05:01:39.581Z,95066.31
2018-12-24T05:04:09.495Z,95076.63
2018-12-24T05:06:39.772Z,95062.50
2018-12-24T05:09:09.862Z,95069.06
2018-12-24T05:11:39.956Z,95063.09
2018-12-24T05:14:09.937Z,95067.94
2018-12-24T05:16:39.878Z,95045.38
2018-12-24T05:19:10.022Z,95047.80
2018-12-24T05:21:40.159Z,95043.91
2018-12-24T05:24:10.230Z,95049.73
2018-12-24T05:26:40.362Z,95044.72
2018-12-24T05:29:10.612Z,95041.97
2018-12-24T05:31:40.733Z,95037.72
2018-12-24T05:34:10.796Z,95066.41
2018-12-24T05:36:40.863Z,95032.34
2018-12-24T05:39:54.898Z,95064.14
2018-12-24T05:42:24.507Z,95061.31
2018-12-24T05:44:54.291Z,95055.83
2018-12-24T05:47:23.838Z,95033.84
2018-12-24T05:49:53.335Z,95036.11
2018-12-24T05:52:23.050Z,95035.91
2018-12-24T05:54:52.757Z,95022.66
2018-12-24T05:57:22.263Z,95039.70
2018-12-24T05:59:51.762Z,95050.60
2018-12-24T06:02:21.397Z,95043.69
2018-12-24T06:04:50.975Z,95047.20
2018-12-24T06:07:20.493Z,95045.08
2018-12-24T06:09:50.051Z,95049.67
2018-12-24T06:12:19.664Z,95031.87
2018-12-24T06:14:49.320Z,95036.95
2018-12-24T06:17:18.957Z,95036.48
2018-12-24T06:19:48.523Z,95039.24
2018-12-24T06:22:18.110Z,95018.38
2018-12-24T06:24:47.755Z,95017.31
2018-12-24T06:27:17.475Z,95026.91
2018-12-24T06:29:47.099Z,95024.45
2018-12-24T06:32:16.981Z,95011.45
2018-12-24T06:34:46.599Z,95020.27
2018-12-24T06:37:16.214Z,95005.92
2018-12-24T06:39:45.817Z,94996.75
2018-12-24T06:42:15.521Z,95019.15
2018-12-24T06:44:45.339Z,95012.52
2018-12-24T06:47:14.866Z,95008.48
2018-12-24T06:49:44.452Z,94973.39
2018-12-24T06:52:14.056Z,94993.85
2018-12-24T06:54:43.797Z,94992.11
2018-12-24T06:57:13.498Z,94983.23
2018-12-24T06:59:43.194Z,94991.70
2018-12-24T07:02:12.840Z,94983.11
2018-12-24T07:04:42.412Z,94967.30
2018-12-24T07:07:12.113Z,94959.30
2018-12-24T07:09:41.766Z,94939.70
2018-12-24T07:12:11.458Z,94934.34
2018-12-24T07:14:41.045Z,94934.87
2018-12-24T07:17:10.727Z,94921.67
2018-12-24T07:19:40.485Z,94911.88
2018-12-24T07:22:10.109Z,94924.35
2018-12-24T07:24:39.900Z,94912.51
2018-12-24T07:27:09.487Z,94910.69
2018-12-24T07:29:39.211Z,94911.75
2018-12-24T07:32:08.820Z,94908.20
2018-12-24T07:34:38.667Z,94892.66
2018-12-24T07:37:10.010Z,94893.83
2018-12-24T07:39:39.595Z,94893.19
2018-12-24T07:42:09.290Z,94891.23
2018-12-24T07:44:38.917Z,94881.84
2018-12-24T07:47:08.513Z,94882.78
2018-12-24T07:49:38.234Z,94879.02
2018-12-24T07:52:07.855Z,94880.10
2018-12-24T07:54:37.435Z,94858.88
2018-12-24T07:57:07.031Z,94825.75
2018-12-24T07:59:36.762Z,94828.59
2018-12-24T08:02:06.393Z,94862.94
2018-12-24T08:04:35.974Z,94836.21
2018-12-24T08:07:05.683Z,94820.97
2018-12-24T08:09:35.297Z,94865.73
2018-12-24T08:12:04.796Z,94855.86
2018-12-24T08:14:34.415Z,94848.84
2018-12-24T08:17:04.213Z,94842.95
2018-12-24T08:19:33.984Z,94845.12
2018-12-24T08:22:03.609Z,94830.84
2018-12-24T08:24:33.269Z,94817.76
2018-12-24T08:27:02.848Z,94828.07
2018-12-24T08:29:32.374Z,94831.84
2018-12-24T08:32:02.080Z,94851.05
2018-12-24T08:34:31.690Z,94854.27
2018-12-24T08:37:01.292Z,94853.26
2018-12-24T08:39:30.914Z,94833.72
2018-12-24T08:42:00.528Z,94850.09
2018-12-24T08:44:30.225Z,94846.55
2018-12-24T08:46:59.750Z,94826.95
2018-12-24T08:49:29.336Z,94817.89
2018-12-24T08:51:58.944Z,94825.91
2018-12-24T08:54:28.598Z,94818.02
2018-12-24T08:56:58.182Z,94806.25
2018-12-24T08:59:27.738Z,94820.33
2018-12-24T09:01:58.153Z,94787.58
2018-12-24T09:04:27.825Z,94769.22
2018-12-24T09:06:57.612Z,94761.16
2018-12-24T09:09:27.128Z,94753.97
2018-12-24T09:11:56.939Z,94762.02
2018-12-24T09:14:26.555Z,94743.64
2018-12-24T09:16:56.159Z,94734.80
2018-12-24T09:19:25.796Z,94725.66
2018-12-24T09:21:55.481Z,94694.84
2018-12-24T09:24:25.196Z,94691.05
2018-12-24T09:26:54.725Z,94703.07
2018-12-24T09:29:24.319Z,94705.90
2018-12-24T09:31:53.907Z,94662.00
2018-12-24T09:34:23.640Z,94654.80
2018-12-24T09:36:53.433Z,94658.11
2018-12-24T09:39:23.105Z,94643.62
2018-12-24T09:41:52.755Z,94609.80
2018-12-24T09:44:22.276Z,94608.14
2018-12-24T09:46:51.875Z,94593.27
2018-12-24T09:49:21.328Z,94611.13
2018-12-24T09:51:50.911Z,94585.90
2018-12-24T09:54:20.379Z,94596.36
2018-12-24T09:56:50.009Z,94618.75
2018-12-24T09:59:19.640Z,94592.34
2018-12-24T10:01:49.322Z,94617.05
2018-12-24T10:04:27.640Z,94609.88
2018-12-24T10:07:00.134Z,94592.88
2018-12-24T10:09:29.707Z,94616.86
2018-12-24T10:11:59.218Z,94604.73
2018-12-24T10:14:28.820Z,94616.28
2018-12-24T10:17:00.634Z,94610.51
2018-12-24T10:19:29.891Z,94573.05
2018-12-24T10:21:59.404Z,94605.84
2018-12-24T10:24:29.105Z,94600.09
2018-12-24T10:26:58.789Z,94555.25
2018-12-24T10:29:28.433Z,94554.41
2018-12-24T10:31:58.062Z,94535.11
2018-12-24T10:34:27.634Z,94528.67
2018-12-24T10:36:57.244Z,94528.09
2018-12-24T10:39:26.891Z,94520.70
2018-12-24T10:41:56.579Z,94484.80
2018-12-24T10:44:26.138Z,94511.88
2018-12-24T10:46:55.810Z,94472.19
2018-12-24T10:49:25.488Z,94451.94
2018-12-24T10:51:55.005Z,94454.63
2018-12-24T10:54:24.614Z,94431.80
2018-12-24T10:56:54.230Z,94483.35
2018-12-24T10:59:23.926Z,94397.41
2018-12-24T11:01:53.542Z,94406.19
2018-12-24T11:04:23.024Z,94395.36
2018-12-24T11:06:52.650Z,94420.50
2018-12-24T11:09:22.279Z,94385.55
2018-12-24T11:11:51.988Z,94378.03
2018-12-24T11:14:21.568Z,94371.86
2018-12-24T11:16:51.160Z,94372.97
2018-12-24T11:19:20.907Z,94362.31
2018-12-24T11:21:50.545Z,94358.78
2018-12-24T11:24:20.112Z,94356.97
2018-12-24T11:26:49.801Z,94346.44
2018-12-24T11:29:19.535Z,94358.02
2018-12-24T11:31:49.155Z,94345.44
2018-12-24T11:34:18.643Z,94350.84
2018-12-24T11:36:48.369Z,94343.59
2018-12-24T11:39:17.969Z,94334.36
2018-12-24T11:41:47.590Z,94377.53
2018-12-24T11:44:17.183Z,94285.55
2018-12-24T11:46:46.773Z,94313.13
2018-12-24T11:49:16.413Z,94346.98
2018-12-24T11:51:46.125Z,94317.39
2018-12-24T11:54:15.824Z,94326.92
2018-12-24T11:56:45.334Z,94350.56
2018-12-24T11:59:15.080Z,94293.02
2018-12-24T12:01:44.766Z,94312.86
2018-12-24T12:04:14.319Z,94332.59
2018-12-24T12:06:43.980Z,94354.73
2018-12-24T12:09:13.687Z,94329.46
2018-12-24T12:11:43.196Z,94321.48
2018-12-24T12:14:12.904Z,94351.00
2018-12-24T12:16:42.648Z,94339.20
2018-12-24T12:19:12.213Z,94392.64
2018-12-24T12:21:41.789Z,94339.80
2018-12-24T12:24:11.347Z,94332.24
2018-12-24T12:26:41.080Z,94359.49
2018-12-24T12:29:10.754Z,94333.52
2018-12-24T12:31:40.469Z,94367.05
2018-12-24T12:34:10.080Z,94335.64
2018-12-24T12:36:39.675Z,94345.06
2018-12-24T12:39:09.553Z,94341.61
2018-12-24T12:41:39.198Z,94346.98
2018-12-24T12:44:09.019Z,94342.69
2018-12-24T12:46:38.568Z,94326.28
2018-12-24T12:49:08.130Z,94337.02
2018-12-24T12:51:37.743Z,94328.25
2018-12-24T12:54:07.467Z,94326.84
2018-12-24T12:56:37.175Z,94322.78
2018-12-24T12:59:06.842Z,94322.75
2018-12-24T13:01:36.417Z,94322.22
2018-12-24T13:04:06.135Z,94327.92
2018-12-24T13:06:35.804Z,94323.89
2018-12-24T13:09:07.321Z,94335.27
2018-12-24T13:11:37.070Z,94327.92
2018-12-24T13:14:06.674Z,94330.03
2018-12-24T13:16:36.285Z,94329.27
2018-12-24T13:19:06.008Z,94314.40
2018-12-24T13:21:35.715Z,94346.08
2018-12-24T13:24:05.428Z,94309.84
2018-12-24T13:26:34.966Z,94303.60
2018-12-24T13:29:04.536Z,94296.05
2018-12-24T13:31:34.217Z,94324.17
2018-12-24T13:34:03.904Z,94279.08
2018-12-24T13:36:33.454Z,94282.57
2018-12-24T13:39:04.744Z,94306.75
2018-12-24T13:41:34.426Z,94269.72
2018-12-24T13:44:03.962Z,94282.37
2018-12-24T13:46:34.048Z,94270.77
2018-12-24T13:49:03.679Z,94294.62
2018-12-24T13:51:33.373Z,94242.26
2018-12-24T13:54:02.963Z,94245.24
2018-12-24T13:56:32.581Z,94264.50
2018-12-24T13:59:02.295Z,94261.31
2018-12-24T14:01:31.975Z,94288.64
2018-12-24T14:04:01.493Z,94226.13
2018-12-24T14:06:31.110Z,94221.27
2018-12-24T14:09:00.720Z,94254.80
2018-12-24T14:11:30.338Z,94234.95
2018-12-24T14:13:59.974Z,94225.59
2018-12-24T14:16:29.651Z,94232.53
2018-12-24T14:18:59.448Z,94246.45
2018-12-24T14:21:29.084Z,94216.14
2018-12-24T14:23:58.678Z,94224.48
2018-12-24T14:26:28.276Z,94232.00
2018-12-24T14:28:57.903Z,94206.78
2018-12-24T14:31:27.542Z,94213.52
2018-12-24T14:33:57.005Z,94235.42
2018-12-24T14:36:26.588Z,94223.38
2018-12-24T14:38:56.162Z,94239.21
2018-12-24T14:41:25.752Z,94218.02
2018-12-24T14:43:55.344Z,94233.31
2018-12-24T14:46:25.660Z,94212.72
2018-12-24T14:48:55.633Z,94194.17
2018-12-24T14:51:25.310Z,94262.55
2018-12-24T14:53:54.903Z,94178.87
2018-12-24T14:56:24.631Z,94240.08
2018-12-24T14:58:54.212Z,94212.50
2018-12-24T15:01:23.857Z,94228.00
2018-12-24T15:03:53.551Z,94237.70
2018-12-24T15:06:23.154Z,94259.88
2018-12-24T15:08:52.868Z,94170.29
2018-12-24T15:11:22.477Z,94197.12
2018-12-24T15:13:52.303Z,94220.97
2018-12-24T15:16:21.903Z,94230.86
2018-12-24T15:18:51.415Z,94241.83
2018-12-24T15:21:21.119Z,94211.48
2018-12-24T15:23:50.708Z,94265.70
2018-12-24T15:26:20.335Z,94236.53
2018-12-24T15:28:49.929Z,94265.17
2018-12-24T15:31:19.541Z,94302.56
2018-12-24T15:33:49.330Z,94310.64
2018-12-24T15:36:19.013Z,94354.62
2018-12-24T15:38:48.471Z,94352.23
2018-12-24T15:41:18.059Z,94402.03
2018-12-24T15:43:47.699Z,94437.59
2018-12-24T15:46:17.403Z,94452.23
2018-12-24T15:48:46.902Z,94463.73
2018-12-24T15:51:17.035Z,94470.48
2018-12-24T15:53:46.739Z,94477.73
2018-12-24T15:56:16.397Z,94510.38
2018-12-24T15:58:46.080Z,94516.10
2018-12-24T16:01:15.876Z,94530.00
2018-12-24T16:03:45.585Z,94532.86
2018-12-24T16:06:15.611Z,94540.16
2018-12-24T16:08:45.400Z,94544.36
2018-12-24T16:11:15.042Z,94561.21
2018-12-24T16:13:44.764Z,94567.16
2018-12-24T16:16:14.441Z,94577.84
2018-12-24T16:18:44.059Z,94578.38
2018-12-24T16:21:13.668Z,94584.02
2018-12-24T16:23:43.276Z,94608.11
2018-12-24T16:26:12.874Z,94614.81
2018-12-24T16:28:42.696Z,94622.36
2018-12-24T16:31:12.333Z,94618.81
2018-12-24T16:33:41.892Z,94634.08
2018-12-24T16:36:11.410Z,94633.27
2018-12-24T16:38:41.043Z,94649.56
2018-12-24T16:41:10.740Z,94654.02
2018-12-24T16:43:40.425Z,94674.95
2018-12-24T16:46:10.088Z,94682.72
2018-12-24T16:48:39.564Z,94697.59
2018-12-24T16:51:09.064Z,94707.08
2018-12-24T16:53:40.549Z,94710.92
2018-12-24T16:56:10.411Z,94714.16
2018-12-24T16:58:40.037Z,94734.59
2018-12-24T17:01:09.678Z,94741.20
2018-12-24T17:03:39.369Z,94748.56
2018-12-24T17:06:08.969Z,94758.95
2018-12-24T17:08:38.682Z,94764.66
2018-12-24T17:11:08.360Z,94765.91
2018-12-24T17:13:38.103Z,94765.02
2018-12-24T17:16:07.709Z,94764.04
2018-12-24T17:18:37.340Z,94767.59
2018-12-24T17:21:07.179Z,94768.81
2018-12-24T17:23:36.845Z,94781.69
2018-12-24T17:26:06.464Z,94783.73
2018-12-24T17:28:36.205Z,94782.62
2018-12-24T17:31:05.874Z,94784.23
2018-12-24T17:33:35.526Z,94792.54
2018-12-24T17:36:05.437Z,94785.61
2018-12-24T17:38:34.897Z,94784.82
2018-12-24T17:41:04.517Z,94785.72
2018-12-24T17:43:34.155Z,94784.38
2018-12-24T17:46:03.976Z,94797.98
2018-12-24T17:48:33.793Z,94787.12
2018-12-24T17:51:03.720Z,94791.73
2018-12-24T17:53:33.474Z,94806.95
2018-12-24T17:56:03.108Z,94792.78
2018-12-24T17:58:32.799Z,94799.72
2018-12-24T18:01:02.562Z,94784.85
2018-12-24T18:03:32.318Z,94796.92
2018-12-24T18:06:01.857Z,94812.14
2018-12-24T18:08:31.450Z,94805.72
2018-12-24T18:11:00.997Z,94794.94
2018-12-24T18:13:30.687Z,94823.81
2018-12-24T18:16:00.364Z,94835.07
2018-12-24T18:18:29.972Z,94828.44
2018-12-24T18:20:59.694Z,94828.31
2018-12-24T18:23:29.444Z,94833.27
2018-12-24T18:25:59.113Z,94824.29
2018-12-24T18:28:28.728Z,94839.78
2018-12-24T18:30:58.430Z,94848.95
2018-12-24T18:33:28.052Z,94854.44
2018-12-24T18:35:57.638Z,94864.20
2018-12-24T18:38:27.356Z,94868.97
2018-12-24T18:40:56.977Z,94881.78
2018-12-24T18:43:26.678Z,94883.72
2018-12-24T18:45:56.440Z,94888.11
2018-12-24T18:48:25.983Z,94905.11
2018-12-24T18:50:55.693Z,94905.57
2018-12-24T18:53:25.337Z,94903.83
2018-12-24T18:55:55.018Z,94895.47
2018-12-24T18:58:24.779Z,94903.14
2018-12-24T19:00:54.434Z,94907.76
2018-12-24T19:03:23.948Z,94909.19
2018-12-24T19:05:53.552Z,94907.47
2018-12-24T19:08:23.189Z,94928.70
2018-12-24T19:10:52.986Z,94932.30
2018-12-24T19:13:22.673Z,94944.05
2018-12-24T19:15:52.140Z,94956.58
2018-12-24T19:18:21.806Z,94950.44
2018-12-24T19:20:51.519Z,94956.21
2018-12-24T19:23:21.119Z,94963.56
2018-12-24T19:25:50.826Z,94983.86
2018-12-24T19:28:20.436Z,94993.34
2018-12-24T19:30:50.046Z,94999.41
2018-12-24T19:33:19.664Z,94997.02
2018-12-24T19:35:49.390Z,95001.50
2018-12-24T19:38:18.987Z,94995.32
2018-12-24T19:40:50.078Z,94997.30
2018-12-24T19:43:19.635Z,94979.66
2018-12-24T19:45:49.227Z,94993.45
2018-12-24T19:48:19.485Z,95009.47
2018-12-24T19:50:49.174Z,95024.00
2018-12-24T19:53:18.729Z,95033.81
2018-12-24T19:55:48.572Z,95034.13
2018-12-24T19:58:18.230Z,95026.69
2018-12-24T20:00:47.820Z,95021.81
2018-12-24T20:03:17.378Z,95027.64
2018-12-24T20:05:47.260Z,95029.19
2018-12-24T20:08:16.836Z,95024.89
2018-12-24T20:10:46.348Z,95036.07
2018-12-24T20:13:15.957Z,95049.27
2018-12-24T20:15:45.587Z,95050.43
2018-12-24T20:18:15.274Z,95056.18
2018-12-24T20:20:44.876Z,95066.45
2018-12-24T20:23:14.521Z,95067.92
2018-12-24T20:25:44.198Z,95076.64
2018-12-24T20:28:13.708Z,95082.75
2018-12-24T20:30:43.410Z,95087.83
2018-12-24T20:33:13.136Z,95084.26
2018-12-24T20:35:42.748Z,95080.23
2018-12-24T20:38:12.552Z,95075.33
2018-12-24T20:40:42.238Z,95095.30
2018-12-24T20:43:11.942Z,95078.90
2018-12-24T20:45:41.477Z,95088.14
2018-12-24T20:48:11.056Z,95091.73
2018-12-24T20:50:40.617Z,95080.02
2018-12-24T20:53:10.282Z,95062.87
2018-12-24T20:55:39.981Z,95070.25
2018-12-24T20:58:09.553Z,95060.45
2018-12-24T21:00:39.195Z,95082.32
2018-12-24T21:03:08.844Z,95087.51
2018-12-24T21:05:38.516Z,95099.39
2018-12-24T21:08:08.204Z,95105.18
2018-12-24T21:10:37.943Z,95103.94
2018-12-24T21:13:07.654Z,95124.93
2018-12-24T21:15:37.263Z,95132.97
2018-12-24T21:18:14.856Z,95135.27
2018-12-24T21:20:38.215Z,95136.11
2018-12-24T21:23:07.938Z,95143.39
2018-12-24T21:25:37.470Z,95139.66
2018-12-24T21:28:07.139Z,95144.08
2018-12-24T21:30:36.746Z,95152.48
2018-12-24T21:33:06.403Z,95151.73
2018-12-24T21:35:36.074Z,95157.69
2018-12-24T21:38:05.646Z,95171.02
2018-12-24T21:40:35.183Z,95169.91
2018-12-24T21:43:04.911Z,95161.27
2018-12-24T21:45:34.606Z,95150.77
2018-12-24T21:48:04.216Z,95139.09
2018-12-24T21:50:33.905Z,95128.66
2018-12-24T21:53:03.642Z,95129.70
2018-12-24T21:55:33.138Z,95128.66
2018-12-24T21:58:02.755Z,95135.28
2018-12-24T22:00:32.471Z,95143.39
2018-12-24T22:03:02.175Z,95144.59
2018-12-24T22:05:31.792Z,95146.32
2018-12-24T22:08:01.356Z,95137.59
2018-12-24T22:10:30.907Z,95137.31
2018-12-24T22:13:00.532Z,95142.67
2018-12-24T22:15:30.226Z,95162.78
2018-12-24T22:17:59.815Z,95183.00
2018-12-24T22:20:29.512Z,95185.61
2018-12-24T22:22:59.149Z,95187.02
2018-12-24T22:25:28.749Z,95174.23
2018-12-24T22:27:58.356Z,95169.84
2018-12-24T22:30:28.081Z,95173.99
2018-12-24T22:32:57.782Z,95180.11
2018-12-24T22:35:27.398Z,95186.00
2018-12-24T22:37:56.898Z,95187.79
2018-12-24T22:40:26.622Z,95178.62
2018-12-24T22:42:56.211Z,95170.22
2018-12-24T22:45:25.837Z,95175.57
2018-12-24T22:47:55.533Z,95182.92
2018-12-24T22:50:25.115Z,95171.70
2018-12-24T22:52:54.755Z,95168.71
2018-12-24T22:55:24.373Z,95180.48
2018-12-24T22:57:54.073Z,95190.60
2018-12-24T23:00:40.982Z,95187.79
2018-12-24T23:03:10.590Z,95188.45
2018-12-24T23:05:40.179Z,95186.14
2018-12-24T23:08:09.812Z,95184.80
2018-12-24T23:10:39.743Z,95183.91
2018-12-24T23:13:09.293Z,95201.48
2018-12-24T23:15:38.950Z,95201.64
2018-12-24T23:18:08.588Z,95213.09
2018-12-24T23:20:38.275Z,95210.49
2018-12-24T23:23:07.862Z,95205.63
2018-12-24T23:25:37.487Z,95205.50
2018-12-24T23:28:07.186Z,95204.32
2018-12-24T23:30:36.698Z,95205.50
2018-12-24T23:33:06.381Z,95221.27
2018-12-24T23:35:36.020Z,95205.71
2018-12-24T23:38:05.826Z,95210.55
2018-12-24T23:40:35.442Z,95205.88
2018-12-24T23:43:05.042Z,95204.61
2018-12-24T23:45:34.656Z,95210.34
2018-12-24T23:48:04.285Z,95199.62
2018-12-24T23:50:33.989Z,95221.14
2018-12-24T23:53:03.583Z,95221.19
2018-12-24T23:55:33.191Z,95222.48
2018-12-24T23:58:02.938Z,95227.52
